Terminal Aerodrome Forecast
Issued by NWS Northern Indiana

Home | Current Version | Previous Version | Text Only | Print | Product List | Glossary Off
Versions: 1 2 3 4 5 6 7 8 9 10 11 12 13 14 15 16 17 18 19 20 21

000
FTUS43 KIWX 261730
TAFFWA
TAF
KFWA 261730Z 2618/2718 00000KT P6SM SCT030 SCT180 BKN250
     FM270000 11003KT P6SM SCT250
      TEMPO 2710/2713 07003KT 4SM BR SCT250=

USA.gov is the U.S. government's official web portal to all federal, state and local government web resources and services.